Rechercher aéroport 
image banner adimage banner adimage banner ad
image banner ad

PS20 - Fairview Farm Airfield

Situé à Pine Grove, United States

ICAO - PS20, IATA -

Données fournies par Airmate  

Information générale

Coordonnées: N40°32'0" W76°27'44"
Élévation : 600 feet MSL.
Variation magnétique : -11° East
Voir autres Aéroports à Pennsylvania

Données opérationnelles

Special qualification required
Heure actuelle UTC:
Heure actuelle locale:
METAR: KMUI 131956Z AUTO 00000KT 4SM DZ BR SCT006 OVC017 21/20 A2989 RMK AO2 DZB45 SLPNO P0000 T02130203
Voir NOTAMs / SUP AIP / TFR affectant cet aéroport [VIEW]
Fréquences de communication: [VIEW]

Pistes:

Identifiant RWYQFULongueur (ft)Largeur (ft)SurfaceLDA (ft)
162000100GRASS
342000100GRASS

Coordonnées de l'aéroport

Adresse: Pine Grove United States

Vue satellite de PS20